Time;durP1;ratioP1;P1;durP2;ratioP2;P2;SDS_P1;SDS_P2;PMS_P1;PMS_P2;Temp;Humidity;BMP_temperature;BMP_pressure;BME280_temperature;BME280_humidity;BME280_pressure;Samples;Min_cycle;Max_cycle;Signal;HPM_P1;HPM_P2
2022/06/03 00:01:57;;;;;;;2.40;1.90;;;23.00;55.50;;;;;;5071760;28;20833;-65
2022/06/03 00:04:48;;;;;;;3.03;2.20;;;23.00;55.60;;;;;;5073452;28;20383;-65
2022/06/03 00:07:39;;;;;;;2.30;2.00;;;23.00;55.70;;;;;;5070052;28;20836;-65
2022/06/03 00:10:33;;;;;;;2.33;2.13;;;23.00;55.50;;;;;;5072452;28;20395;-65
2022/06/03 00:13:28;;;;;;;3.22;2.25;;;23.00;55.50;;;;;;5060090;28;20763;-65
2022/06/03 00:16:00;;;;;;;2.63;2.10;;;23.00;55.70;;;;;;5067333;28;20398;-65
2022/06/03 00:18:40;;;;;;;2.70;2.30;;;23.00;55.70;;;;;;5071920;28;20383;-65
2022/06/03 00:21:09;;;;;;;2.63;2.42;;;23.00;55.60;;;;;;5073151;28;20375;-65
2022/06/03 00:23:51;;;;;;;2.85;2.05;;;23.00;55.60;;;;;;5071202;28;20419;-66
2022/06/03 00:26:42;;;;;;;2.25;2.05;;;23.00;55.60;;;;;;5071773;28;20409;-65
2022/06/03 00:29:22;;;;;;;2.28;2.05;;;23.00;55.60;;;;;;5071506;28;20511;-65
2022/06/03 00:32:10;;;;;;;2.70;2.00;;;23.00;55.60;;;;;;5071203;28;20392;-65
2022/06/03 00:35:00;;;;;;;2.20;2.00;;;23.00;55.70;;;;;;5072931;28;20895;-65
2022/06/03 00:37:51;;;;;;;2.80;2.03;;;23.00;55.70;;;;;;5072608;28;20384;-65
2022/06/03 00:40:37;;;;;;;2.50;2.00;;;23.00;55.60;;;;;;5072292;28;20474;-65
2022/06/03 00:43:15;;;;;;;2.30;2.10;;;23.00;55.70;;;;;;5072596;28;20396;-65
2022/06/03 00:46:20;;;;;;;2.88;2.20;;;23.00;55.60;;;;;;5072233;28;20384;-65
2022/06/03 00:48:56;;;;;;;2.50;2.20;;;23.00;55.60;;;;;;5072511;28;20926;-65
2022/06/03 00:51:57;;;;;;;2.50;2.20;;;23.00;55.70;;;;;;5072536;28;20391;-65
2022/06/03 00:54:55;;;;;;;2.60;2.40;;;23.00;55.70;;;;;;5039926;28;20438;-65
2022/06/03 00:57:38;;;;;;;2.65;2.45;;;22.90;55.60;;;;;;5038597;28;20456;-65
2022/06/03 01:00:29;;;;;;;2.50;2.30;;;22.90;55.60;;;;;;5071024;28;20888;-65
2022/06/03 01:03:23;;;;;;;3.35;2.17;;;22.90;55.60;;;;;;5070620;28;20757;-65
2022/06/03 01:06:47;;;;;;;2.40;2.08;;;22.90;55.50;;;;;;5071757;28;20922;-65
2022/06/03 01:09:41;;;;;;;2.55;2.15;;;22.90;55.60;;;;;;5043233;28;20420;-66
2022/06/03 01:12:20;;;;;;;2.42;2.10;;;22.90;55.70;;;;;;5072108;28;20868;-65
2022/06/03 01:15:10;;;;;;;2.75;2.20;;;22.90;55.60;;;;;;5072081;28;20384;-65
2022/06/03 01:17:58;;;;;;;2.30;1.95;;;22.90;55.70;;;;;;5070251;28;20392;-65
2022/06/03 01:20:32;;;;;;;2.60;2.00;;;22.90;55.60;;;;;;5072091;28;20383;-65
2022/06/03 01:23:20;;;;;;;2.17;1.90;;;22.90;55.70;;;;;;5071345;28;20426;-65
2022/06/03 01:26:13;;;;;;;3.00;2.15;;;22.90;55.60;;;;;;5071448;28;20437;-65
2022/06/03 01:28:42;;;;;;;2.20;2.00;;;22.90;55.60;;;;;;5071686;28;20494;-65
2022/06/03 01:32:01;;;;;;;3.03;2.30;;;22.90;55.60;;;;;;5071781;28;20383;-65
2022/06/03 01:34:27;;;;;;;2.53;2.10;;;22.90;55.70;;;;;;5010084;28;20396;-65
2022/06/03 01:37:16;;;;;;;3.03;2.03;;;22.90;55.70;;;;;;5066736;28;20384;-65
2022/06/03 01:40:06;;;;;;;2.30;2.10;;;22.90;55.70;;;;;;5070059;28;20406;-65
2022/06/03 01:43:05;;;;;;;2.30;1.90;;;22.90;55.70;;;;;;5071669;28;20408;-65
2022/06/03 01:46:00;;;;;;;2.22;2.03;;;22.90;55.70;;;;;;5071681;28;20798;-65
2022/06/03 01:48:28;;;;;;;2.67;2.20;;;22.90;55.70;;;;;;5071445;28;20415;-65
2022/06/03 01:50:57;;;;;;;2.90;2.15;;;22.90;55.70;;;;;;5070171;28;20888;-65
2022/06/03 01:53:48;;;;;;;2.40;2.20;;;22.90;55.70;;;;;;5069793;28;20416;-65
2022/06/03 01:56:43;;;;;;;2.42;2.22;;;22.90;55.60;;;;;;5050415;28;20384;-65
2022/06/03 01:59:36;;;;;;;3.70;2.20;;;22.90;55.70;;;;;;5103966;28;20450;-65
2022/06/03 02:02:40;;;;;;;2.53;2.13;;;22.90;55.70;;;;;;5070082;28;20475;-65
2022/06/03 02:06:02;;;;;;;2.35;2.10;;;22.80;55.70;;;;;;5071283;28;20388;-66
2022/06/03 02:08:55;;;;;;;2.40;2.20;;;22.80;55.70;;;;;;5009139;28;20420;-65
2022/06/03 02:12:08;;;;;;;2.40;2.00;;;22.80;55.70;;;;;;5009509;28;20504;-65
2022/06/03 02:15:26;;;;;;;2.40;2.20;;;22.80;55.60;;;;;;5072622;28;20383;-65
2022/06/03 02:18:33;;;;;;;2.30;2.10;;;22.80;55.70;;;;;;5015420;28;20758;-65
2022/06/03 02:21:38;;;;;;;2.70;2.20;;;22.80;55.60;;;;;;5015599;28;20427;-65
2022/06/03 02:24:35;;;;;;;2.30;2.10;;;22.80;55.60;;;;;;5077140;28;20425;-65
2022/06/03 02:27:39;;;;;;;3.25;2.08;;;22.80;55.80;;;;;;5087425;28;20379;-65
2022/06/03 02:30:33;;;;;;;2.50;2.10;;;22.80;55.80;;;;;;5027029;28;20509;-65
2022/06/03 02:33:17;;;;;;;2.40;1.90;;;22.80;55.60;;;;;;5077732;28;20730;-65
2022/06/03 02:36:17;;;;;;;2.30;2.10;;;22.80;55.70;;;;;;5077319;28;20379;-65
2022/06/03 02:38:58;;;;;;;3.30;2.10;;;22.80;55.70;;;;;;5075976;28;20398;-65
2022/06/03 02:41:45;;;;;;;2.40;2.05;;;22.80;55.80;;;;;;5076432;28;20388;-65
2022/06/03 02:44:17;;;;;;;2.42;2.22;;;22.80;55.70;;;;;;5077645;28;20387;-65
2022/06/03 02:46:52;;;;;;;2.50;2.00;;;22.80;55.70;;;;;;5077688;28;20437;-65
2022/06/03 02:49:46;;;;;;;2.25;2.00;;;22.80;55.70;;;;;;5077660;28;20446;-65
2022/06/03 02:52:12;;;;;;;2.67;2.13;;;22.80;55.70;;;;;;5077425;28;20395;-65
2022/06/03 02:54:52;;;;;;;2.20;2.00;;;22.80;55.80;;;;;;5076263;28;20410;-65
2022/06/03 02:57:43;;;;;;;2.40;2.20;;;22.80;55.70;;;;;;5076321;28;20396;-65
2022/06/03 03:00:18;;;;;;;2.40;2.20;;;22.80;55.80;;;;;;5077581;28;20379;-65
2022/06/03 03:02:55;;;;;;;2.70;2.13;;;22.80;55.90;;;;;;5077419;28;20464;-65
2022/06/03 03:05:48;;;;;;;2.45;2.10;;;22.80;55.80;;;;;;5075678;28;20532;-65
2022/06/03 03:08:35;;;;;;;2.50;2.30;;;22.80;55.80;;;;;;5077314;28;20426;-65
2022/06/03 03:11:15;;;;;;;2.20;1.80;;;22.70;55.70;;;;;;5076681;28;20376;-65
2022/06/03 03:14:05;;;;;;;2.50;1.97;;;22.70;55.70;;;;;;5076895;28;20387;-65
2022/06/03 03:17:08;;;;;;;2.33;2.05;;;22.80;55.70;;;;;;5076272;28;20899;-65
2022/06/03 03:19:45;;;;;;;2.10;1.90;;;22.80;55.80;;;;;;5077315;28;20590;-65
2022/06/03 03:22:30;;;;;;;2.10;1.90;;;22.80;55.80;;;;;;5077431;28;20376;-65
2022/06/03 03:25:07;;;;;;;2.60;1.97;;;22.70;55.70;;;;;;5076694;28;20471;-65
2022/06/03 03:27:54;;;;;;;2.25;1.80;;;22.80;55.80;;;;;;5072126;28;20395;-65
2022/06/03 03:30:33;;;;;;;2.90;1.95;;;22.70;55.70;;;;;;5074506;28;20896;-65
2022/06/03 03:33:10;;;;;;;2.22;1.90;;;22.70;55.70;;;;;;5102991;28;20465;-65
2022/06/03 03:35:53;;;;;;;2.40;2.00;;;22.80;55.70;;;;;;5103296;28;20390;-65
2022/06/03 03:38:56;;;;;;;2.30;2.10;;;22.70;55.60;;;;;;5109319;28;20426;-65
2022/06/03 03:41:46;;;;;;;3.08;2.28;;;22.70;55.70;;;;;;5102781;28;20397;-65
2022/06/03 03:44:27;;;;;;;2.45;1.80;;;22.80;55.80;;;;;;5111126;28;20404;-65
2022/06/03 03:47:16;;;;;;;2.30;2.10;;;22.80;55.80;;;;;;5114490;28;20418;-65
2022/06/03 03:50:22;;;;;;;2.60;2.00;;;22.70;55.80;;;;;;5113871;28;20545;-65
2022/06/03 03:53:12;;;;;;;2.95;2.00;;;22.70;55.80;;;;;;5112934;28;20409;-65
2022/06/03 03:56:09;;;;;;;3.15;2.20;;;22.70;55.80;;;;;;5109331;28;21060;-64
2022/06/03 03:58:56;;;;;;;2.65;2.05;;;22.70;55.70;;;;;;5085103;28;20413;-65
2022/06/03 04:01:55;;;;;;;3.13;2.15;;;22.80;55.70;;;;;;5093502;28;20386;-65
2022/06/03 04:04:39;;;;;;;3.65;2.00;;;22.70;55.40;;;;;;5092477;28;20443;-64
2022/06/03 04:07:43;;;;;;;2.47;1.90;;;22.70;55.80;;;;;;5093285;28;20750;-64
2022/06/03 04:10:30;;;;;;;5.82;2.35;;;22.80;56.60;;;;;;5091845;28;20718;-64
2022/06/03 04:13:20;;;;;;;8.75;4.25;;;22.80;57.60;;;;;;5092650;28;20385;-64
2022/06/03 04:16:22;;;;;;;5.00;2.92;;;22.90;58.30;;;;;;5093866;28;20390;-64
2022/06/03 04:19:12;;;;;;;4.78;2.88;;;22.90;57.40;;;;;;5072143;28;20447;-64
2022/06/03 04:22:10;;;;;;;3.80;2.80;;;22.90;56.80;;;;;;5092996;28;20469;-64
2022/06/03 04:24:45;;;;;;;4.45;2.80;;;22.90;57.10;;;;;;5092718;28;20387;-64
2022/06/03 04:27:28;;;;;;;5.30;2.70;;;22.90;56.60;;;;;;5092621;28;20378;-64
2022/06/03 04:30:06;;;;;;;5.57;2.43;;;22.90;56.80;;;;;;5092604;28;20906;-64
2022/06/03 04:32:44;;;;;;;4.70;2.20;;;22.90;56.60;;;;;;5093047;28;20394;-64
2022/06/03 04:35:42;;;;;;;5.63;2.40;;;22.90;56.80;;;;;;5093090;28;20382;-64
2022/06/03 04:38:43;;;;;;;3.10;2.15;;;22.90;56.80;;;;;;5065663;28;20924;-64
2022/06/03 04:41:30;;;;;;;14.30;2.60;;;22.90;56.90;;;;;;5090915;28;20490;-64
2022/06/03 04:44:20;;;;;;;12.52;2.38;;;22.90;57.00;;;;;;5092501;28;20402;-64
2022/06/03 04:47:23;;;;;;;12.10;2.42;;;22.90;57.10;;;;;;5092289;28;20426;-67
2022/06/03 04:50:04;;;;;;;7.43;2.27;;;22.90;57.20;;;;;;5088222;28;20438;-63
2022/06/03 04:52:49;;;;;;;8.10;2.40;;;22.90;57.10;;;;;;5085739;28;20491;-64
2022/06/03 04:55:14;;;;;;;8.85;2.40;;;22.90;57.10;;;;;;5090738;28;20395;-65
2022/06/03 04:58:37;;;;;;;7.87;2.33;;;22.90;56.80;;;;;;5092402;28;20385;-64
2022/06/03 05:01:26;;;;;;;6.75;2.10;;;22.90;56.40;;;;;;5013498;28;20907;-65
2022/06/03 05:04:29;;;;;;;4.33;2.10;;;22.90;56.50;;;;;;5013343;28;20391;-64
2022/06/03 05:07:25;;;;;;;7.35;2.28;;;22.90;56.60;;;;;;5092263;28;20775;-65
2022/06/03 05:10:41;;;;;;;4.80;2.30;;;22.90;56.70;;;;;;5091459;28;20475;-64
2022/06/03 05:13:39;;;;;;;3.85;2.10;;;22.90;56.70;;;;;;5090866;28;20870;-65
2022/06/03 05:16:15;;;;;;;4.75;2.03;;;22.90;56.70;;;;;;5091600;28;20398;-64
2022/06/03 05:18:44;;;;;;;3.97;2.13;;;22.90;56.70;;;;;;5092101;28;20370;-64
2022/06/03 05:21:24;;;;;;;5.28;2.00;;;23.00;56.80;;;;;;5091743;28;20392;-64
2022/06/03 05:24:43;;;;;;;5.22;2.05;;;23.00;56.60;;;;;;5091511;28;20440;-64
2022/06/03 05:27:46;;;;;;;6.22;2.30;;;23.00;56.60;;;;;;5029463;28;20520;-65
2022/06/03 05:30:29;;;;;;;6.20;2.30;;;23.00;57.20;;;;;;5091676;28;20602;-64
2022/06/03 05:33:42;;;;;;;5.28;2.50;;;23.00;57.00;;;;;;5091806;28;20788;-65
2022/06/03 05:36:14;;;;;;;5.65;2.42;;;23.00;56.80;;;;;;5059233;28;20939;-65
2022/06/03 05:39:08;;;;;;;4.22;2.00;;;23.00;56.90;;;;;;5091734;28;20425;-65
2022/06/03 05:44:48;;;;;;;5.93;2.10;;;23.00;57.00;;;;;;5092113;28;20389;-65
2022/06/03 05:47:42;;;;;;;4.82;2.00;;;23.00;56.90;;;;;;5091699;28;20980;-65
2022/06/03 05:50:17;;;;;;;4.57;1.90;;;23.00;56.90;;;;;;5059380;28;20479;-65
2022/06/03 05:53:07;;;;;;;4.47;2.25;;;23.10;56.90;;;;;;5090525;28;20929;-64
2022/06/03 05:55:55;;;;;;;4.60;1.85;;;23.10;56.80;;;;;;5091608;28;20385;-65
2022/06/03 05:58:52;;;;;;;5.07;2.08;;;23.10;56.80;;;;;;5090594;28;20955;-65
2022/06/03 06:01:41;;;;;;;4.85;2.10;;;23.10;56.80;;;;;;5091445;28;20382;-65
2022/06/03 06:04:42;;;;;;;5.55;2.10;;;23.10;56.70;;;;;;5090857;28;20432;-66
2022/06/03 06:07:26;;;;;;;4.68;2.38;;;23.10;56.70;;;;;;5045969;28;20419;-65
2022/06/03 06:10:14;;;;;;;4.75;2.78;;;23.10;56.60;;;;;;5089968;28;20414;-65
2022/06/03 06:13:03;;;;;;;4.95;2.28;;;23.10;56.60;;;;;;5091559;28;20913;-65
2022/06/03 06:16:07;;;;;;;3.03;2.03;;;23.10;56.50;;;;;;5091101;28;20386;-65
2022/06/03 06:18:54;;;;;;;4.55;2.42;;;23.10;56.40;;;;;;5090152;28;20387;-65
2022/06/03 06:21:53;;;;;;;3.92;2.00;;;23.20;56.50;;;;;;5089820;28;20781;-65
2022/06/03 06:24:42;;;;;;;3.72;2.30;;;23.10;56.40;;;;;;5090382;28;21040;-66
2022/06/03 06:27:25;;;;;;;4.43;2.40;;;23.20;56.30;;;;;;5048349;28;20751;-65
2022/06/03 06:29:54;;;;;;;3.13;2.20;;;23.20;56.30;;;;;;5090618;28;20516;-65
2022/06/03 06:32:28;;;;;;;3.25;2.28;;;23.20;56.30;;;;;;5091280;28;20382;-65
2022/06/03 06:34:54;;;;;;;3.60;2.10;;;23.20;56.30;;;;;;5090985;28;20433;-65
2022/06/03 06:37:22;;;;;;;3.97;2.10;;;23.20;56.30;;;;;;5090923;28;20417;-65
2022/06/03 06:39:52;;;;;;;4.28;2.20;;;23.20;56.20;;;;;;5091076;28;20400;-65
2022/06/03 06:42:46;;;;;;;5.55;2.03;;;23.20;56.20;;;;;;5090900;28;20435;-66
2022/06/03 06:45:17;;;;;;;3.80;2.37;;;23.20;56.10;;;;;;5091022;28;20440;-66
2022/06/03 06:47:52;;;;;;;4.72;3.00;;;23.20;56.10;;;;;;5090838;28;20447;-65
2022/06/03 06:50:26;;;;;;;3.40;2.80;;;23.20;56.10;;;;;;5089653;28;20445;-65
2022/06/03 06:53:03;;;;;;;4.68;3.20;;;23.20;56.00;;;;;;5089543;28;20409;-65
2022/06/03 06:55:55;;;;;;;5.22;3.65;;;23.30;56.00;;;;;;5090807;28;20389;-65
2022/06/03 06:58:42;;;;;;;5.43;3.72;;;23.30;56.10;;;;;;5091007;28;20378;-65
2022/06/03 07:01:09;;;;;;;4.90;3.50;;;23.30;56.10;;;;;;5093299;28;20535;-65
2022/06/03 07:03:59;;;;;;;4.15;3.60;;;23.30;56.00;;;;;;5085852;28;20436;-65
2022/06/03 07:06:57;;;;;;;4.97;3.45;;;23.30;56.00;;;;;;5094691;28;20374;-66
2022/06/03 07:10:06;;;;;;;4.82;3.83;;;23.30;56.00;;;;;;5087248;28;20769;-66
2022/06/03 07:12:59;;;;;;;5.30;4.07;;;23.30;56.00;;;;;;5006967;28;20392;-65
2022/06/03 07:15:44;;;;;;;6.22;4.50;;;23.30;55.90;;;;;;4994555;28;20392;-65
2022/06/03 07:21:37;;;;;;;6.93;5.37;;;23.30;55.90;;;;;;5096360;28;20385;-65
2022/06/03 07:24:17;;;;;;;7.95;6.00;;;23.30;55.90;;;;;;5112406;28;20384;-64
2022/06/03 07:26:54;;;;;;;7.45;6.57;;;23.30;55.70;;;;;;5114481;28;20413;-65
2022/06/03 07:29:38;;;;;;;10.13;6.35;;;23.30;55.90;;;;;;5114207;28;20416;-65
2022/06/03 07:32:13;;;;;;;12.57;6.40;;;23.30;55.90;;;;;;5113706;28;20431;-64
2022/06/03 07:34:44;;;;;;;12.87;8.90;;;23.30;56.10;;;;;;5114473;28;20423;-65
2022/06/03 07:37:28;;;;;;;14.90;11.18;;;23.30;57.20;;;;;;5114358;28;20868;-65
2022/06/03 07:40:06;;;;;;;13.57;7.88;;;23.40;59.00;;;;;;5114185;28;20395;-65
2022/06/03 07:42:44;;;;;;;16.00;8.10;;;23.40;57.90;;;;;;5113879;28;20407;-65
2022/06/03 07:45:21;;;;;;;17.92;7.93;;;23.40;57.60;;;;;;5114170;28;20373;-65
2022/06/03 07:47:48;;;;;;;17.47;7.67;;;23.40;61.00;;;;;;5114117;28;20384;-66
2022/06/03 07:50:17;;;;;;;12.93;7.13;;;23.50;62.10;;;;;;5113636;28;20411;-65
2022/06/03 07:52:50;;;;;;;13.57;6.63;;;23.60;61.90;;;;;;5113557;28;20395;-65
2022/06/03 07:55:21;;;;;;;14.85;7.03;;;23.60;61.20;;;;;;5115087;28;20400;-65
2022/06/03 07:57:52;;;;;;;15.48;6.90;;;23.60;61.30;;;;;;5113510;28;20459;-65
2022/06/03 08:00:20;;;;;;;12.65;6.88;;;23.60;61.00;;;;;;5113889;28;20910;-65
2022/06/03 08:02:59;;;;;;;15.48;6.88;;;23.70;60.70;;;;;;5112684;28;20801;-64
2022/06/03 08:05:24;;;;;;;11.38;6.63;;;23.70;60.80;;;;;;5113852;28;20419;-65
2022/06/03 08:10:58;;;;;;;16.98;6.90;;;23.80;61.40;;;;;;5090360;28;20397;-65
2022/06/03 08:13:42;;;;;;;12.73;6.30;;;23.80;60.80;;;;;;5113042;28;20887;-65
2022/06/03 08:16:25;;;;;;;12.10;8.20;;;23.80;59.50;;;;;;5114034;28;20387;-65
2022/06/03 08:18:54;;;;;;;16.37;11.37;;;23.80;60.00;;;;;;5113928;28;20994;-65
2022/06/03 08:21:27;;;;;;;12.63;8.55;;;23.80;61.50;;;;;;5113765;28;20390;-65
2022/06/03 08:23:54;;;;;;;14.03;8.00;;;23.80;60.10;;;;;;5113637;28;20385;-65
2022/06/03 08:26:26;;;;;;;13.15;7.85;;;23.80;59.80;;;;;;5113131;28;20380;-66
2022/06/03 08:29:05;;;;;;;11.98;7.82;;;23.80;59.40;;;;;;5113633;28;20637;-66
2022/06/03 08:31:32;;;;;;;14.35;9.63;;;23.80;59.40;;;;;;5113683;28;20376;-65
2022/06/03 08:34:02;;;;;;;14.40;9.83;;;23.80;59.20;;;;;;5113973;28;20424;-65
2022/06/03 08:36:35;;;;;;;13.10;9.27;;;23.80;59.20;;;;;;5113322;28;20415;-65
2022/06/03 08:39:14;;;;;;;14.27;9.02;;;23.80;59.00;;;;;;5113454;28;20385;-65
2022/06/03 08:41:52;;;;;;;13.57;9.30;;;23.80;58.80;;;;;;5112824;28;20385;-65
2022/06/03 08:44:42;;;;;;;12.35;9.00;;;23.80;58.70;;;;;;5112481;28;20377;-66
2022/06/03 08:47:25;;;;;;;12.77;9.20;;;23.80;58.20;;;;;;5112928;28;20380;-65
2022/06/03 08:50:25;;;;;;;13.02;9.38;;;23.80;58.30;;;;;;5113968;28;20423;-65
2022/06/03 08:53:03;;;;;;;12.90;9.25;;;23.80;57.70;;;;;;5111493;28;20412;-65
2022/06/03 08:55:38;;;;;;;14.82;10.25;;;23.80;57.40;;;;;;5111473;28;20897;-66
2022/06/03 08:58:35;;;;;;;14.90;11.48;;;23.80;57.10;;;;;;5113685;28;20395;-66
2022/06/03 09:01:03;;;;;;;13.97;11.30;;;23.80;56.90;;;;;;5110372;28;20460;-66
2022/06/03 09:03:37;;;;;;;16.23;11.43;;;23.80;56.70;;;;;;5112758;28;20385;-65
2022/06/03 09:06:06;;;;;;;15.07;11.90;;;23.80;56.60;;;;;;5110832;28;20892;-65
2022/06/03 09:08:51;;;;;;;15.98;11.88;;;23.80;56.50;;;;;;5112596;28;20405;-65
2022/06/03 09:11:29;;;;;;;15.90;11.33;;;23.80;57.00;;;;;;5112608;28;20384;-65
2022/06/03 09:14:21;;;;;;;16.13;11.43;;;23.80;56.30;;;;;;5113930;28;20380;-66
2022/06/03 09:16:49;;;;;;;15.02;11.20;;;23.80;56.20;;;;;;5104199;28;20405;-65
2022/06/03 09:19:23;;;;;;;12.73;10.70;;;23.80;56.20;;;;;;5112563;28;20372;-66
2022/06/03 09:21:51;;;;;;;13.25;10.15;;;23.80;56.10;;;;;;5112180;28;20384;-66
2022/06/03 09:24:24;;;;;;;15.43;10.30;;;23.80;56.00;;;;;;5110305;28;20384;-66
2022/06/03 09:26:55;;;;;;;12.75;9.88;;;23.80;56.00;;;;;;5110914;28;20427;-66
2022/06/03 09:29:21;;;;;;;12.50;9.45;;;23.80;56.00;;;;;;5112247;28;20408;-66
2022/06/03 09:31:57;;;;;;;15.82;11.13;;;23.80;56.10;;;;;;5111745;28;20485;-66
2022/06/03 09:34:41;;;;;;;17.75;11.63;;;23.80;56.80;;;;;;5111821;28;20790;-66
2022/06/03 09:37:14;;;;;;;17.08;12.30;;;23.90;58.00;;;;;;5112064;28;20377;-66
2022/06/03 09:39:44;;;;;;;16.70;11.30;;;24.00;59.10;;;;;;5111531;28;20404;-66
2022/06/03 09:42:12;;;;;;;18.25;12.07;;;24.00;58.40;;;;;;5111086;28;20392;-66
2022/06/03 09:44:39;;;;;;;17.35;11.02;;;24.00;58.80;;;;;;5111769;28;20376;-66
2022/06/03 09:47:08;;;;;;;16.52;11.90;;;24.00;58.90;;;;;;5111603;28;20463;-66
2022/06/03 09:49:34;;;;;;;19.15;12.20;;;24.00;58.90;;;;;;5110407;28;20414;-66
2022/06/03 09:52:03;;;;;;;22.50;12.20;;;24.10;60.20;;;;;;5110474;28;20391;-65
2022/06/03 09:54:36;;;;;;;21.10;12.88;;;24.10;60.10;;;;;;5111155;28;20552;-66
2022/06/03 09:57:15;;;;;;;23.42;13.40;;;24.10;60.10;;;;;;5110453;28;20388;-66
2022/06/03 10:00:03;;;;;;;23.33;14.07;;;24.10;60.60;;;;;;5110260;28;20399;-66
2022/06/03 10:02:31;;;;;;;17.85;12.95;;;24.20;60.20;;;;;;5110096;28;20743;-66
2022/06/03 10:05:00;;;;;;;22.08;13.18;;;24.20;60.40;;;;;;5112219;28;20399;-66
2022/06/03 10:07:26;;;;;;;19.58;12.43;;;24.20;60.40;;;;;;5111883;28;20443;-66
2022/06/03 10:12:49;;;;;;;21.38;13.00;;;24.20;60.80;;;;;;5112110;28;20402;-66
2022/06/03 10:15:41;;;;;;;17.17;10.88;;;24.30;61.00;;;;;;5111498;28;20917;-65
2022/06/03 10:18:25;;;;;;;15.77;9.70;;;24.20;60.30;;;;;;5110957;28;20848;-65
2022/06/03 10:20:54;;;;;;;18.35;9.68;;;24.20;59.00;;;;;;5111586;28;20388;-65
2022/06/03 10:23:27;;;;;;;17.77;8.97;;;24.20;58.80;;;;;;5110595;28;20819;-65
2022/06/03 10:25:59;;;;;;;14.23;8.20;;;24.20;58.40;;;;;;5111673;28;20471;-65
2022/06/03 10:28:30;;;;;;;59.63;15.00;;;24.20;58.30;;;;;;5109587;28;20844;-65
2022/06/03 10:31:01;;;;;;;290.88;61.25;;;24.20;58.80;;;;;;5111333;28;20368;-65
2022/06/03 10:33:27;;;;;;;451.30;109.30;;;24.30;60.70;;;;;;5111329;28;20382;-65
2022/06/03 10:35:57;;;;;;;280.27;62.42;;;24.30;60.70;;;;;;5113385;28;20496;-65
2022/06/03 10:38:27;;;;;;;232.38;54.45;;;24.30;60.00;;;;;;5115101;28;20415;-65
2022/06/03 10:40:53;;;;;;;204.95;47.15;;;24.30;59.90;;;;;;5115441;28;20380;-66
2022/06/03 10:43:30;;;;;;;168.90;39.63;;;24.30;59.50;;;;;;5114205;28;20477;-65
2022/06/03 10:46:17;;;;;;;148.95;35.60;;;24.30;59.00;;;;;;5115037;28;20393;-65
2022/06/03 10:48:44;;;;;;;129.32;32.70;;;24.30;58.90;;;;;;5115237;28;20444;-66
2022/06/03 11:02:37;;;;;;;98.82;26.15;;;24.30;58.60;;;;;;5115177;28;20386;-65
2022/06/03 11:05:20;;;;;;;91.97;25.02;;;24.30;58.40;;;;;;5115151;28;20392;-66
2022/06/03 11:08:05;;;;;;;82.38;23.60;;;24.30;58.30;;;;;;5115003;28;20373;-65
2022/06/03 11:10:42;;;;;;;68.60;21.92;;;24.30;58.10;;;;;;5114642;28;20900;-65
2022/06/03 11:13:11;;;;;;;71.95;22.13;;;24.30;58.00;;;;;;5114753;28;20369;-66
2022/06/03 11:15:42;;;;;;;73.30;21.92;;;24.30;57.90;;;;;;5114815;28;20450;-65
2022/06/03 11:18:27;;;;;;;68.15;21.23;;;24.30;57.80;;;;;;5114553;28;20380;-65
2022/06/03 11:20:54;;;;;;;65.00;20.35;;;24.30;57.60;;;;;;5113319;28;20400;-65
2022/06/03 11:23:21;;;;;;;63.72;19.67;;;24.30;57.50;;;;;;5113466;28;20388;-65
2022/06/03 11:25:53;;;;;;;63.05;19.15;;;24.30;57.30;;;;;;5113279;28;20483;-65
2022/06/03 11:28:37;;;;;;;54.78;18.15;;;24.30;58.20;;;;;;5112996;28;20469;-65
2022/06/03 11:31:19;;;;;;;54.88;17.27;;;24.30;57.40;;;;;;5113182;28;20419;-65
2022/06/03 11:34:02;;;;;;;52.73;16.13;;;24.30;57.30;;;;;;5114548;28;20471;-65
2022/06/03 11:36:54;;;;;;;47.70;16.20;;;24.30;57.10;;;;;;5114066;28;20408;-65
2022/06/03 11:39:33;;;;;;;49.47;15.57;;;24.30;56.90;;;;;;5114450;28;20434;-65
2022/06/03 11:42:06;;;;;;;45.22;15.68;;;24.40;56.90;;;;;;5114261;28;20473;-65
2022/06/03 11:44:40;;;;;;;54.53;20.02;;;24.40;56.70;;;;;;5114218;28;20387;-65
2022/06/03 11:47:49;;;;;;;75.93;26.00;;;24.40;57.80;;;;;;5110010;28;20393;-65
2022/06/03 11:50:18;;;;;;;41.83;16.60;;;24.40;58.90;;;;;;5084781;28;20410;-65
2022/06/03 11:52:44;;;;;;;37.20;14.68;;;24.50;58.30;;;;;;5093401;28;20405;-65
2022/06/03 11:55:11;;;;;;;32.80;14.77;;;24.40;58.00;;;;;;5092181;28;20416;-65
2022/06/03 11:57:47;;;;;;;33.92;15.15;;;24.40;58.80;;;;;;5093533;28;20416;-65
2022/06/03 12:00:19;;;;;;;32.17;11.70;;;24.50;59.30;;;;;;5093090;28;20922;-65
2022/06/03 12:03:05;;;;;;;31.83;12.15;;;24.50;59.90;;;;;;5093646;28;20915;-65
2022/06/03 12:05:38;;;;;;;32.58;11.88;;;24.60;59.90;;;;;;5092220;28;20438;-66
2022/06/03 12:08:22;;;;;;;25.48;11.40;;;24.60;60.30;;;;;;5104795;28;20449;-65
2022/06/03 12:11:10;;;;;;;24.83;10.53;;;24.60;59.90;;;;;;5092591;28;20924;-66
2022/06/03 12:13:36;;;;;;;23.02;9.93;;;24.60;59.50;;;;;;5092480;28;20862;-66
2022/06/03 12:16:17;;;;;;;24.52;10.25;;;24.60;58.90;;;;;;5092725;28;20425;-65
2022/06/03 12:19:01;;;;;;;25.55;9.90;;;24.60;58.60;;;;;;5093384;28;20374;-65
2022/06/03 12:21:30;;;;;;;23.10;9.90;;;24.50;58.20;;;;;;5092913;28;20390;-65
2022/06/03 12:24:16;;;;;;;20.35;9.38;;;24.60;58.20;;;;;;5093201;28;20378;-65
2022/06/03 12:26:49;;;;;;;20.77;9.63;;;24.60;58.10;;;;;;5093007;28;20414;-65
2022/06/03 12:29:30;;;;;;;45.70;22.52;;;24.60;58.60;;;;;;5092910;28;20525;-66
2022/06/03 12:32:11;;;;;;;37.58;18.77;;;24.60;61.00;;;;;;5092869;28;20450;-65
2022/06/03 12:34:37;;;;;;;30.67;13.90;;;24.70;62.00;;;;;;5092714;28;20381;-65
2022/06/03 12:37:27;;;;;;;24.33;11.17;;;24.70;61.80;;;;;;5093056;28;20390;-65
2022/06/03 12:40:04;;;;;;;23.52;9.00;;;24.70;60.60;;;;;;5092719;28;20461;-65
2022/06/03 12:42:38;;;;;;;18.98;8.50;;;24.70;59.40;;;;;;5086640;28;20852;-65
2022/06/03 12:45:04;;;;;;;22.97;8.50;;;24.60;58.70;;;;;;5091521;28;20432;-65
2022/06/03 12:47:35;;;;;;;21.70;7.85;;;24.60;58.20;;;;;;5086768;28;20458;-65
2022/06/03 12:50:04;;;;;;;20.98;8.05;;;24.60;57.90;;;;;;5092523;28;20429;-65
2022/06/03 12:52:30;;;;;;;16.85;8.05;;;24.60;57.60;;;;;;5091691;28;20405;-66
2022/06/03 12:55:10;;;;;;;19.13;7.80;;;24.60;57.60;;;;;;5092485;28;20389;-65
2022/06/03 12:57:51;;;;;;;18.95;7.57;;;24.60;57.50;;;;;;5092795;28;20381;-66
2022/06/03 13:00:20;;;;;;;14.82;7.78;;;24.60;57.40;;;;;;5092180;28;20374;-66
2022/06/03 13:03:05;;;;;;;16.83;7.53;;;24.60;57.10;;;;;;5092388;28;20378;-65
2022/06/03 13:05:40;;;;;;;14.05;7.97;;;24.60;56.90;;;;;;5092082;28;20393;-65
2022/06/03 13:08:26;;;;;;;13.40;7.40;;;24.60;56.70;;;;;;5092202;28;20421;-65
2022/06/03 13:10:58;;;;;;;15.98;7.38;;;24.60;56.70;;;;;;5092306;28;20390;-66
2022/06/03 13:13:35;;;;;;;15.35;7.05;;;24.60;56.80;;;;;;5092411;28;20410;-65
2022/06/03 13:16:31;;;;;;;16.20;7.18;;;24.50;56.90;;;;;;5092098;28;20405;-65
2022/06/03 13:19:20;;;;;;;13.40;7.15;;;24.50;56.80;;;;;;5091871;28;20439;-65
2022/06/03 13:21:58;;;;;;;10.95;6.30;;;24.50;56.70;;;;;;5090924;28;20482;-65
2022/06/03 13:24:35;;;;;;;12.65;6.40;;;24.50;56.40;;;;;;5090158;28;20399;-65
2022/06/03 13:27:18;;;;;;;11.95;6.88;;;24.50;56.60;;;;;;5090789;28;20397;-66
2022/06/03 13:29:50;;;;;;;12.88;6.53;;;24.50;56.40;;;;;;5091804;28;20449;-66
2022/06/03 13:32:37;;;;;;;13.93;6.53;;;24.50;56.20;;;;;;5090412;28;20382;-65
2022/06/03 13:35:28;;;;;;;11.80;6.53;;;24.40;56.10;;;;;;5090605;28;20394;-65
2022/06/03 13:38:00;;;;;;;11.63;6.18;;;24.40;55.90;;;;;;5071660;28;20427;-66
2022/06/03 13:40:25;;;;;;;12.85;5.78;;;24.40;56.10;;;;;;5070982;28;20395;-66
2022/06/03 13:43:16;;;;;;;12.43;5.90;;;24.40;56.10;;;;;;5070388;28;20414;-66
2022/06/03 13:45:54;;;;;;;13.63;6.35;;;24.40;56.10;;;;;;5071703;28;20868;-65
2022/06/03 13:48:34;;;;;;;13.98;6.65;;;24.40;56.00;;;;;;5070950;28;20411;-65
2022/06/03 13:51:16;;;;;;;9.55;5.95;;;24.40;56.20;;;;;;5104115;28;20400;-65
2022/06/03 13:53:52;;;;;;;11.15;6.03;;;24.40;56.10;;;;;;5071109;28;20408;-65
2022/06/03 13:56:23;;;;;;;15.55;6.20;;;24.40;55.80;;;;;;5070988;28;20375;-65
2022/06/03 13:58:49;;;;;;;12.63;5.63;;;24.40;56.10;;;;;;5071218;28;20379;-65
2022/06/03 14:01:33;;;;;;;9.68;5.72;;;24.40;56.10;;;;;;5071374;28;20818;-66
2022/06/03 14:04:23;;;;;;;12.85;5.43;;;24.40;56.10;;;;;;5071061;28;20388;-65
2022/06/03 14:07:08;;;;;;;11.45;5.22;;;24.40;56.30;;;;;;5066265;28;20494;-65
2022/06/03 14:09:45;;;;;;;9.50;5.07;;;24.40;56.20;;;;;;5070484;28;20411;-66
2022/06/03 14:12:35;;;;;;;9.60;5.20;;;24.40;56.40;;;;;;5070844;28;20927;-65
2022/06/03 14:15:25;;;;;;;9.00;5.05;;;24.40;56.40;;;;;;5070913;28;20388;-65
2022/06/03 14:17:58;;;;;;;8.18;5.38;;;24.40;56.30;;;;;;5071089;28;20404;-65
2022/06/03 14:20:49;;;;;;;8.95;5.40;;;24.40;56.30;;;;;;5070489;28;20380;-65
2022/06/03 14:23:38;;;;;;;8.50;5.37;;;24.30;56.00;;;;;;5071185;28;20379;-65